createdAt,value
2018-07-11T00:01:38.598Z,2.90
2018-07-11T00:04:07.208Z,2.72
2018-07-11T00:06:35.484Z,2.70
2018-07-11T00:09:04.603Z,2.75
2018-07-11T00:11:33.030Z,2.90
2018-07-11T00:14:01.280Z,2.77
2018-07-11T00:16:30.223Z,2.22
2018-07-11T00:18:58.508Z,2.30
2018-07-11T00:21:26.782Z,2.30
2018-07-11T00:23:55.350Z,2.45
2018-07-11T00:26:24.450Z,2.87
2018-07-11T00:28:53.177Z,2.60
2018-07-11T00:31:21.523Z,2.80
2018-07-11T00:33:49.766Z,2.22
2018-07-11T00:36:18.075Z,3.05
2018-07-11T00:38:47.175Z,2.58
2018-07-11T00:41:15.958Z,2.75
2018-07-11T00:43:44.547Z,2.60
2018-07-11T00:46:13.638Z,2.85
2018-07-11T00:48:41.915Z,2.45
2018-07-11T00:51:10.530Z,2.42
2018-07-11T00:53:38.878Z,2.45
2018-07-11T00:56:07.128Z,2.37
2018-07-11T00:58:52.229Z,2.75
2018-07-11T01:01:21.330Z,2.67
2018-07-11T01:03:50.239Z,3.75
2018-07-11T01:06:18.828Z,2.60
2018-07-11T01:08:48.984Z,2.92
2018-07-11T01:11:18.113Z,2.75
2018-07-11T01:13:48.061Z,2.77
2018-07-11T01:16:17.158Z,2.95
2018-07-11T01:18:51.576Z,3.20
2018-07-11T01:21:19.830Z,2.70
2018-07-11T01:23:48.131Z,2.60
2018-07-11T01:26:17.224Z,2.45
2018-07-11T01:28:45.508Z,2.25
2018-07-11T01:31:14.120Z,2.85
2018-07-11T01:33:42.472Z,2.50
2018-07-11T01:36:10.738Z,2.33
2018-07-11T01:38:38.988Z,3.00
2018-07-11T01:41:07.704Z,2.00
2018-07-11T01:43:35.984Z,2.10
2018-07-11T01:46:04.265Z,3.20
2018-07-11T01:48:33.285Z,3.17
2018-07-11T01:51:01.636Z,2.50
2018-07-11T01:53:29.912Z,2.80
2018-07-11T01:55:58.202Z,2.42
2018-07-11T01:58:26.496Z,2.85
2018-07-11T02:00:55.137Z,2.37
2018-07-11T02:03:23.445Z,2.27
2018-07-11T02:05:52.662Z,2.60
2018-07-11T02:08:21.608Z,2.65
2018-07-11T02:10:49.892Z,3.02
2018-07-11T02:13:18.176Z,2.20
2018-07-11T02:15:47.222Z,3.08
2018-07-11T02:18:16.776Z,2.85
2018-07-11T02:20:45.065Z,3.08
2018-07-11T02:23:13.376Z,3.10
2018-07-11T02:25:41.660Z,2.40
2018-07-11T02:28:09.944Z,2.15
2018-07-11T02:30:38.567Z,2.05
2018-07-11T02:33:06.845Z,2.85
2018-07-11T02:35:35.137Z,2.47
2018-07-11T02:38:03.626Z,2.42
2018-07-11T02:40:32.413Z,2.20
2018-07-11T02:43:00.730Z,2.60
2018-07-11T02:45:29.012Z,2.67
2018-07-11T02:47:57.263Z,2.65
2018-07-11T02:50:25.597Z,2.45
2018-07-11T02:52:54.126Z,2.60
2018-07-11T02:55:22.454Z,2.77
2018-07-11T02:57:50.974Z,2.75
2018-07-11T03:00:19.476Z,3.37
2018-07-11T03:02:47.757Z,2.60
2018-07-11T03:05:16.491Z,2.77
2018-07-11T03:07:44.776Z,2.62
2018-07-11T03:10:13.036Z,2.20
2018-07-11T03:12:41.308Z,2.75
2018-07-11T03:15:09.585Z,2.80
2018-07-11T03:17:38.333Z,2.65
2018-07-11T03:20:06.925Z,2.90
2018-07-11T03:22:35.164Z,2.40
2018-07-11T03:25:03.913Z,2.80
2018-07-11T03:27:32.250Z,2.40
2018-07-11T03:30:00.888Z,2.60
2018-07-11T03:32:29.178Z,2.85
2018-07-11T03:34:57.440Z,2.70
2018-07-11T03:37:25.738Z,2.83
2018-07-11T03:39:53.996Z,2.72
2018-07-11T03:42:22.282Z,3.35
2018-07-11T03:44:50.633Z,2.85
2018-07-11T03:47:18.884Z,3.20
2018-07-11T03:49:47.392Z,3.30
2018-07-11T03:52:15.785Z,2.90
2018-07-11T03:54:44.080Z,3.83
2018-07-11T03:57:12.736Z,3.42
2018-07-11T03:59:41.016Z,3.35
2018-07-11T04:02:09.269Z,3.55
2018-07-11T04:04:37.541Z,2.80
2018-07-11T04:07:05.844Z,3.25
2018-07-11T04:09:34.397Z,3.00
2018-07-11T04:12:03.144Z,3.62
2018-07-11T04:14:31.497Z,2.85
2018-07-11T04:16:59.772Z,3.70
2018-07-11T04:19:28.045Z,3.00
2018-07-11T04:21:56.329Z,3.67
2018-07-11T04:24:25.010Z,3.27
2018-07-11T04:26:53.696Z,3.30
2018-07-11T04:29:22.165Z,3.22
2018-07-11T04:31:50.436Z,3.62
2018-07-11T04:34:18.746Z,3.55
2018-07-11T04:36:47.020Z,2.80
2018-07-11T04:39:15.260Z,3.02
2018-07-11T04:41:43.758Z,2.92
2018-07-11T04:44:12.056Z,3.77
2018-07-11T04:46:40.428Z,3.30
2018-07-11T04:49:08.724Z,3.12
2018-07-11T04:51:37.124Z,2.85
2018-07-11T04:54:05.556Z,3.25
2018-07-11T04:56:33.840Z,3.02
2018-07-11T04:59:02.102Z,3.33
2018-07-11T05:01:30.344Z,3.80
2018-07-11T05:03:58.632Z,3.17
2018-07-11T05:06:26.941Z,2.85
2018-07-11T05:08:55.211Z,2.90
2018-07-11T05:11:23.493Z,3.65
2018-07-11T05:13:51.768Z,3.33
2018-07-11T05:16:20.113Z,2.47
2018-07-11T05:18:48.316Z,2.85
2018-07-11T05:21:16.980Z,2.30
2018-07-11T05:23:45.289Z,2.80
2018-07-11T05:26:13.553Z,2.30
2018-07-11T05:28:42.202Z,3.37
2018-07-11T05:31:10.524Z,2.15
2018-07-11T05:33:39.199Z,2.70
2018-07-11T05:36:07.480Z,2.62
2018-07-11T05:38:35.765Z,2.52
2018-07-11T05:41:04.416Z,2.52
2018-07-11T05:43:32.722Z,2.52
2018-07-11T05:46:01.371Z,2.50
2018-07-11T05:48:30.457Z,2.20
2018-07-11T05:50:58.788Z,2.05
2018-07-11T05:53:27.092Z,2.65
2018-07-11T05:55:55.752Z,2.67
2018-07-11T05:58:26.311Z,1.90
2018-07-11T06:00:56.113Z,2.27
2018-07-11T06:03:24.364Z,2.42
2018-07-11T06:05:52.856Z,2.45
2018-07-11T06:08:21.565Z,2.80
2018-07-11T06:10:49.904Z,1.75
2018-07-11T06:13:18.241Z,2.45
2018-07-11T06:15:46.897Z,2.25
2018-07-11T06:18:15.146Z,2.30
2018-07-11T06:20:43.421Z,2.40
2018-07-11T06:23:11.701Z,2.40
2018-07-11T06:25:40.008Z,2.65
2018-07-11T06:28:08.673Z,1.90
2018-07-11T06:30:36.981Z,1.92
2018-07-11T06:33:06.045Z,1.82
2018-07-11T06:35:35.524Z,2.15
2018-07-11T06:38:03.916Z,1.82
2018-07-11T06:40:32.504Z,2.20
2018-07-11T06:43:00.790Z,2.45
2018-07-11T06:45:29.059Z,1.50
2018-07-11T06:47:57.323Z,1.70
2018-07-11T06:50:25.636Z,2.08
2018-07-11T06:52:54.234Z,2.10
2018-07-11T06:55:22.613Z,2.22
2018-07-11T06:57:51.152Z,1.80
2018-07-11T07:00:19.532Z,2.00
2018-07-11T07:02:47.804Z,2.15
2018-07-11T07:05:16.060Z,1.98
2018-07-11T07:07:44.328Z,2.40
2018-07-11T07:10:13.056Z,2.20
2018-07-11T07:12:41.662Z,2.12
2018-07-11T07:15:10.015Z,2.52
2018-07-11T07:17:38.272Z,2.02
2018-07-11T07:20:06.560Z,2.15
2018-07-11T07:22:35.673Z,2.67
2018-07-11T07:25:04.101Z,1.80
2018-07-11T07:27:32.580Z,2.00
2018-07-11T07:30:01.232Z,2.20
2018-07-11T07:32:29.572Z,2.27
2018-07-11T07:34:57.869Z,2.42
2018-07-11T07:37:26.446Z,2.67
2018-07-11T07:39:54.796Z,1.92
2018-07-11T07:42:23.469Z,1.60
2018-07-11T07:44:52.320Z,2.30
2018-07-11T07:47:26.020Z,2.12
2018-07-11T07:49:54.480Z,2.37
2018-07-11T07:52:22.820Z,2.00
2018-07-11T07:54:51.855Z,2.02
2018-07-11T07:57:20.471Z,2.35
2018-07-11T07:59:48.817Z,1.90
2018-07-11T08:02:18.070Z,2.25
2018-07-11T08:04:47.628Z,2.55
2018-07-11T08:07:15.912Z,2.35
2018-07-11T08:09:44.384Z,2.33
2018-07-11T08:12:12.673Z,2.65
2018-07-11T08:14:40.974Z,2.02
2018-07-11T08:17:09.964Z,2.42
2018-07-11T08:19:38.705Z,2.37
2018-07-11T08:22:12.780Z,2.10
2018-07-11T08:24:46.530Z,2.00
2018-07-11T08:27:20.681Z,1.95
2018-07-11T08:29:56.375Z,2.30
2018-07-11T08:33:02.040Z,2.02
2018-07-11T08:36:33.258Z,1.85
2018-07-11T08:41:08.398Z,2.00
2018-07-11T08:43:47.039Z,2.02
2018-07-11T08:46:22.679Z,2.00
2018-07-11T08:49:28.691Z,1.87
2018-07-11T08:53:05.931Z,1.70
2018-07-11T08:57:41.370Z,1.98
2018-07-11T09:00:17.817Z,2.03
2018-07-11T09:02:57.127Z,2.23
2018-07-11T09:05:36.542Z,2.63
2018-07-11T09:08:10.310Z,2.30
2018-07-11T09:10:42.939Z,2.20
2018-07-11T09:13:28.855Z,2.50
2018-07-11T09:16:02.839Z,2.50
2018-07-11T09:18:36.870Z,2.33
2018-07-11T09:21:09.632Z,1.60
2018-07-11T09:24:46.222Z,1.77
2018-07-11T09:27:14.958Z,2.10
2018-07-11T09:29:44.534Z,1.87
2018-07-11T09:32:13.421Z,1.90
2018-07-11T09:34:42.095Z,2.37
2018-07-11T09:37:10.390Z,1.90
2018-07-11T09:39:38.859Z,1.90
2018-07-11T09:42:07.130Z,2.23
2018-07-11T09:44:35.662Z,2.07
2018-07-11T09:47:09.323Z,2.13
2018-07-11T09:49:37.996Z,2.00
2018-07-11T09:52:06.253Z,2.30
2018-07-11T09:54:34.621Z,2.30
2018-07-11T09:57:03.314Z,2.00
2018-07-11T09:59:31.566Z,2.13
2018-07-11T10:01:59.856Z,1.77
2018-07-11T10:04:28.230Z,1.77
2018-07-11T10:06:56.720Z,2.43
2018-07-11T10:09:25.099Z,2.37
2018-07-11T10:11:53.432Z,2.20
2018-07-11T10:14:22.470Z,2.23
2018-07-11T10:16:51.163Z,2.47
2018-07-11T10:19:19.438Z,2.27
2018-07-11T10:21:47.707Z,2.40
2018-07-11T10:24:16.730Z,2.13
2018-07-11T10:26:44.959Z,2.43
2018-07-11T10:29:13.419Z,2.90
2018-07-11T10:31:41.672Z,2.43
2018-07-11T10:34:10.247Z,2.67
2018-07-11T10:36:38.526Z,2.57
2018-07-11T10:39:06.885Z,2.30
2018-07-11T10:41:35.154Z,2.73
2018-07-11T10:44:03.440Z,2.23
2018-07-11T10:46:31.723Z,1.87
2018-07-11T10:49:00.001Z,2.23
2018-07-11T10:51:28.291Z,2.10
2018-07-11T10:53:56.540Z,2.17
2018-07-11T10:56:24.837Z,2.20
2018-07-11T10:58:53.095Z,2.23
2018-07-11T11:01:21.349Z,1.83
2018-07-11T11:03:49.647Z,1.90
2018-07-11T11:06:18.322Z,1.80
2018-07-11T11:08:46.605Z,1.90
2018-07-11T11:11:14.882Z,2.50
2018-07-11T11:13:43.159Z,2.20
2018-07-11T11:16:11.435Z,2.23
2018-07-11T11:18:39.850Z,1.50
2018-07-11T11:21:08.389Z,1.73
2018-07-11T11:23:37.079Z,2.30
2018-07-11T11:26:05.863Z,1.87
2018-07-11T11:28:34.159Z,1.80
2018-07-11T11:31:02.395Z,1.70
2018-07-11T11:33:30.622Z,2.13
2018-07-11T11:35:58.911Z,1.80
2018-07-11T11:38:27.458Z,1.90
2018-07-11T11:40:55.829Z,1.73
2018-07-11T11:43:24.044Z,2.03
2018-07-11T11:45:52.382Z,2.00
2018-07-11T11:48:20.600Z,2.00
2018-07-11T11:50:48.843Z,1.47
2018-07-11T11:53:17.556Z,2.00
2018-07-11T11:55:45.779Z,2.30
2018-07-11T11:58:14.015Z,2.33
2018-07-11T12:00:42.462Z,1.90
2018-07-11T12:03:10.695Z,2.03
2018-07-11T12:05:39.013Z,1.63
2018-07-11T12:08:07.290Z,2.07
2018-07-11T12:10:35.579Z,1.90
2018-07-11T12:13:04.055Z,1.80
2018-07-11T12:15:32.864Z,2.40
2018-07-11T12:18:01.087Z,2.27
2018-07-11T12:20:29.343Z,2.37
2018-07-11T12:22:57.623Z,2.33
2018-07-11T12:25:25.896Z,1.70
2018-07-11T12:27:54.487Z,2.30
2018-07-11T12:30:22.819Z,2.40
2018-07-11T12:32:51.207Z,2.07
2018-07-11T12:35:19.964Z,2.47
2018-07-11T12:37:48.239Z,2.00
2018-07-11T12:40:16.521Z,2.20
2018-07-11T12:42:44.813Z,2.03
2018-07-11T12:45:13.091Z,2.57
2018-07-11T12:47:46.707Z,2.17
2018-07-11T12:50:15.371Z,1.73
2018-07-11T12:52:44.058Z,2.30
2018-07-11T12:55:12.339Z,2.00
2018-07-11T12:57:40.599Z,2.40
2018-07-11T13:00:08.877Z,2.23
2018-07-11T13:02:37.488Z,2.33
2018-07-11T13:05:05.741Z,1.90
2018-07-11T13:07:34.119Z,1.93
2018-07-11T13:10:02.793Z,2.10
2018-07-11T13:12:31.363Z,2.00
2018-07-11T13:14:59.758Z,2.67
2018-07-11T13:17:28.007Z,2.50
2018-07-11T13:19:56.653Z,2.37
2018-07-11T13:22:24.915Z,2.00
2018-07-11T13:24:53.278Z,1.97
2018-07-11T13:27:21.514Z,1.90
2018-07-11T13:29:49.834Z,2.13
2018-07-11T13:32:18.183Z,2.43
2018-07-11T13:34:46.650Z,2.20
2018-07-11T13:37:15.407Z,2.13
2018-07-11T13:39:43.678Z,2.43
2018-07-11T13:42:12.467Z,2.33
2018-07-11T13:44:40.760Z,2.60
2018-07-11T13:47:14.360Z,2.17
2018-07-11T13:49:42.612Z,2.53
2018-07-11T13:52:11.248Z,2.27
2018-07-11T13:54:39.554Z,2.07
2018-07-11T13:57:08.147Z,2.47
2018-07-11T13:59:36.859Z,2.00
2018-07-11T14:02:05.107Z,2.50
2018-07-11T14:04:33.898Z,3.00
2018-07-11T14:07:02.187Z,2.43
2018-07-11T14:09:30.486Z,2.70
2018-07-11T14:11:58.747Z,2.70
2018-07-11T14:14:27.029Z,2.20
2018-07-11T14:16:55.306Z,2.13
2018-07-11T14:19:23.859Z,2.57
2018-07-11T14:21:53.497Z,2.50
2018-07-11T14:24:22.259Z,2.57
2018-07-11T14:26:52.068Z,2.70
2018-07-11T14:29:21.982Z,3.00
2018-07-11T14:31:52.422Z,2.30
2018-07-11T14:34:21.815Z,2.67
2018-07-11T14:36:50.088Z,2.73
2018-07-11T14:39:18.411Z,2.10
2018-07-11T14:41:46.728Z,2.00
2018-07-11T14:44:14.979Z,2.77
2018-07-11T14:46:43.607Z,2.10
2018-07-11T14:49:15.196Z,2.30
2018-07-11T14:51:43.707Z,2.63
2018-07-11T14:54:12.123Z,2.60
2018-07-11T14:56:40.399Z,2.27
2018-07-11T14:59:08.666Z,2.00
2018-07-11T15:01:37.292Z,2.43
2018-07-11T15:04:06.460Z,1.97
2018-07-11T15:06:35.222Z,2.10
2018-07-11T15:09:04.040Z,1.70
2018-07-11T15:11:32.104Z,2.10
2018-07-11T15:14:00.792Z,2.58
2018-07-11T15:16:29.079Z,2.25
2018-07-11T15:18:58.092Z,2.10
2018-07-11T15:21:26.439Z,2.50
2018-07-11T15:23:54.693Z,2.60
2018-07-11T15:26:22.982Z,2.27
2018-07-11T15:28:51.259Z,2.30
2018-07-11T15:31:19.517Z,2.20
2018-07-11T15:33:48.274Z,2.20
2018-07-11T15:36:17.347Z,2.47
2018-07-11T15:38:46.007Z,2.50
2018-07-11T15:41:14.291Z,2.15
2018-07-11T15:43:42.539Z,2.10
2018-07-11T15:46:10.832Z,2.30
2018-07-11T15:48:39.419Z,2.30
2018-07-11T15:51:07.857Z,2.12
2018-07-11T15:53:36.218Z,2.37
2018-07-11T15:56:04.767Z,1.62
2018-07-11T15:58:36.060Z,2.92
2018-07-11T16:01:05.423Z,2.00
2018-07-11T16:03:36.155Z,2.30
2018-07-11T16:06:04.767Z,2.70
2018-07-11T16:08:33.522Z,2.85
2018-07-11T16:11:03.909Z,2.37
2018-07-11T16:13:32.950Z,2.45
2018-07-11T16:16:01.201Z,2.30
2018-07-11T16:18:29.512Z,2.45
2018-07-11T16:20:57.803Z,3.25
2018-07-11T16:23:26.392Z,3.42
2018-07-11T16:25:54.740Z,2.87
2018-07-11T16:28:23.421Z,2.45
2018-07-11T16:30:51.695Z,2.60
2018-07-11T16:33:19.935Z,2.55
2018-07-11T16:35:48.255Z,2.25
2018-07-11T16:38:16.517Z,2.92
2018-07-11T16:40:44.839Z,2.40
2018-07-11T16:43:14.391Z,2.02
2018-07-11T16:45:42.690Z,2.62
2018-07-11T16:48:11.227Z,2.58
2018-07-11T16:50:39.543Z,2.72
2018-07-11T16:53:07.827Z,2.15
2018-07-11T16:55:36.575Z,2.30
2018-07-11T16:58:05.536Z,2.33
2018-07-11T17:00:34.956Z,3.30
2018-07-11T17:03:06.731Z,2.55
2018-07-11T17:05:40.679Z,1.90
2018-07-11T17:08:09.797Z,2.20
2018-07-11T17:10:42.162Z,2.10
2018-07-11T17:13:16.179Z,2.12
2018-07-11T17:15:46.480Z,2.27
2018-07-11T17:18:48.968Z,2.60
2018-07-11T17:21:23.956Z,2.20
2018-07-11T17:23:54.009Z,1.90
2018-07-11T17:26:25.680Z,2.47
2018-07-11T17:28:56.536Z,2.35
2018-07-11T17:31:24.879Z,2.00
2018-07-11T17:33:53.151Z,2.80
2018-07-11T17:36:21.399Z,2.15
2018-07-11T17:38:49.667Z,3.05
2018-07-11T17:41:17.979Z,2.80
2018-07-11T17:43:48.826Z,2.25
2018-07-11T17:46:18.331Z,2.17
2018-07-11T17:49:25.854Z,2.00
2018-07-11T17:52:01.572Z,2.47
2018-07-11T17:55:35.292Z,2.75
2018-07-11T17:58:08.482Z,2.52
2018-07-11T18:00:52.735Z,2.33
2018-07-11T18:03:57.048Z,2.90
2018-07-11T18:06:31.683Z,3.05
2018-07-11T18:09:07.118Z,3.17
2018-07-11T18:11:38.645Z,2.77
2018-07-11T18:14:06.965Z,2.72
2018-07-11T18:16:44.559Z,3.00
2018-07-11T18:19:18.671Z,3.20
2018-07-11T18:23:54.327Z,2.75
2018-07-11T18:26:27.096Z,2.70
2018-07-11T18:29:01.111Z,2.98
2018-07-11T18:32:00.749Z,3.20
2018-07-11T18:34:32.083Z,2.77
2018-07-11T18:37:09.788Z,3.20
2018-07-11T18:39:47.138Z,2.70
2018-07-11T18:42:38.114Z,3.52
2018-07-11T18:45:14.222Z,3.08
2018-07-11T18:47:51.895Z,3.20
2018-07-11T18:50:59.599Z,2.98
2018-07-11T18:53:30.767Z,3.30
2018-07-11T18:56:01.520Z,3.20
2018-07-11T18:58:35.772Z,3.25
2018-07-11T19:01:09.867Z,2.90
2018-07-11T19:03:43.542Z,3.60
2018-07-11T19:06:23.176Z,2.85
2018-07-11T19:08:56.892Z,3.30
2018-07-11T19:11:27.132Z,2.98
2018-07-11T19:14:00.916Z,3.77
2018-07-11T19:17:08.583Z,4.33
2018-07-11T19:19:45.659Z,3.58
2018-07-11T19:22:18.283Z,3.95
2018-07-11T19:24:50.049Z,4.17
2018-07-11T19:27:30.499Z,3.58
2018-07-11T19:30:10.795Z,3.35
2018-07-11T19:33:44.569Z,4.20
2018-07-11T19:37:19.452Z,3.60
2018-07-11T19:39:52.511Z,3.72
2018-07-11T19:42:27.033Z,4.10
2018-07-11T19:45:02.620Z,3.87
2018-07-11T19:47:41.811Z,4.53
2018-07-11T19:50:23.475Z,4.47
2018-07-11T19:52:54.005Z,4.25
2018-07-11T19:55:28.815Z,4.22
2018-07-11T19:57:57.432Z,4.22
2018-07-11T20:00:25.723Z,4.30
2018-07-11T20:02:54.843Z,4.40
2018-07-11T20:05:23.083Z,2.92
2018-07-11T20:07:51.767Z,3.25
2018-07-11T20:10:20.055Z,3.58
2018-07-11T20:12:48.664Z,3.20
2018-07-11T20:15:17.067Z,3.58
2018-07-11T20:17:45.283Z,3.98
2018-07-11T20:20:13.523Z,3.75
2018-07-11T20:22:41.741Z,3.72
2018-07-11T20:25:09.979Z,3.55
2018-07-11T20:27:38.255Z,3.60
2018-07-11T20:30:06.749Z,3.40
2018-07-11T20:32:34.975Z,3.47
2018-07-11T20:35:03.219Z,3.27
2018-07-11T20:37:31.473Z,3.42
2018-07-11T20:39:59.807Z,3.60
2018-07-11T20:42:28.063Z,3.95
2018-07-11T20:44:56.386Z,3.67
2018-07-11T20:47:24.936Z,3.15
2018-07-11T20:49:53.147Z,3.80
2018-07-11T20:52:21.359Z,4.00
2018-07-11T20:54:49.831Z,3.70
2018-07-11T20:57:18.092Z,3.52
2018-07-11T20:59:52.123Z,4.28
2018-07-11T21:02:26.139Z,3.52
2018-07-11T21:05:00.076Z,3.60
2018-07-11T21:07:30.171Z,3.27
2018-07-11T21:10:12.707Z,3.25
2018-07-11T21:12:55.696Z,4.90
2018-07-11T21:15:31.755Z,3.35
2018-07-11T21:18:04.947Z,3.50
2018-07-11T21:20:33.972Z,3.83
2018-07-11T21:23:02.400Z,4.20
2018-07-11T21:25:30.599Z,3.92
2018-07-11T21:27:58.837Z,4.00
2018-07-11T21:30:27.147Z,3.47
2018-07-11T21:32:55.423Z,4.05
2018-07-11T21:35:23.699Z,3.92
2018-07-11T21:37:52.724Z,3.98
2018-07-11T21:40:20.979Z,4.70
2018-07-11T21:42:49.348Z,4.17
2018-07-11T21:45:18.038Z,4.12
2018-07-11T21:47:46.328Z,4.50
2018-07-11T21:50:14.591Z,3.98
2018-07-11T21:52:43.131Z,4.62
2018-07-11T21:55:11.883Z,4.37
2018-07-11T21:57:40.652Z,3.77
2018-07-11T22:00:09.026Z,3.77
2018-07-11T22:02:37.294Z,5.12
2018-07-11T22:05:05.892Z,4.47
2018-07-11T22:07:34.173Z,4.58
2018-07-11T22:10:02.491Z,3.90
2018-07-11T22:12:30.748Z,3.92
2018-07-11T22:14:59.003Z,4.30
2018-07-11T22:17:32.564Z,4.40
2018-07-11T22:20:00.407Z,3.47
2018-07-11T22:22:28.318Z,4.40
2018-07-11T22:24:55.949Z,4.53
2018-07-11T22:27:23.647Z,4.22
2018-07-11T22:29:51.853Z,4.78
2018-07-11T22:32:19.533Z,5.20
2018-07-11T22:34:47.280Z,4.08
2018-07-11T22:37:15.117Z,4.65
2018-07-11T22:39:42.927Z,5.20
2018-07-11T22:42:10.847Z,4.65
2018-07-11T22:44:38.572Z,4.60
2018-07-11T22:47:06.505Z,4.25
2018-07-11T22:49:36.795Z,4.30
2018-07-11T22:52:04.435Z,4.55
2018-07-11T22:54:32.234Z,4.62
2018-07-11T22:56:59.892Z,4.25
2018-07-11T22:59:27.965Z,4.97
2018-07-11T23:01:55.737Z,4.28
2018-07-11T23:04:23.627Z,4.28
2018-07-11T23:06:51.268Z,4.53
2018-07-11T23:09:18.891Z,4.17
2018-07-11T23:11:46.556Z,5.03
2018-07-11T23:14:14.205Z,4.55
2018-07-11T23:16:42.242Z,4.87
2018-07-11T23:19:09.871Z,4.97
2018-07-11T23:21:38.115Z,4.53
2018-07-11T23:24:05.815Z,5.10
2018-07-11T23:26:33.684Z,5.00
2018-07-11T23:29:01.487Z,3.98
2018-07-11T23:31:29.451Z,4.37
2018-07-11T23:33:57.124Z,4.22
2018-07-11T23:36:24.759Z,5.20
2018-07-11T23:38:52.607Z,4.95
2018-07-11T23:41:20.507Z,4.60
2018-07-11T23:43:48.702Z,4.60
2018-07-11T23:46:16.775Z,5.10
2018-07-11T23:48:44.486Z,4.83
2018-07-11T23:51:12.349Z,4.85
2018-07-11T23:53:40.223Z,4.62
2018-07-11T23:56:08.091Z,4.00
2018-07-11T23:58:36.287Z,4.33
